Time,TemperatureF,DewpointF,PressureIn,WindDirection,WindDirectionDegrees,WindSpeedMPH,WindSpeedGustMPH,Humidity,HourlyPrecipIn,Conditions,Clouds,dailyrainin,SoftwareType,DateUTC
2015-09-04 00:05:00,72.8,72.0,29.79,SSE,156,2.0,10.0,97,0.00,,,0.00,weatherlink.com 1.10,2015-09-04 10:05:00,
2015-09-04 00:20:00,72.7,72.0,29.79,SE,142,7.0,7.0,96,0.00,,,0.00,weatherlink.com 1.10,2015-09-04 10:20:00,
2015-09-04 00:36:00,72.5,71.0,29.78,SSE,158,1.0,6.0,96,0.00,,,0.00,weatherlink.com 1.10,2015-09-04 10:36:00,
2015-09-04 00:52:00,72.4,71.0,29.78,SSE,160,2.0,7.0,96,0.00,,,0.00,weatherlink.com 1.10,2015-09-04 10:52:00,
2015-09-04 01:07:00,72.2,71.0,29.77,SSE,163,2.0,5.0,96,0.00,,,0.00,weatherlink.com 1.10,2015-09-04 11:07:00,
2015-09-04 01:24:00,72.1,71.0,29.78,SSE,164,1.0,4.0,96,0.00,,,0.00,weatherlink.com 1.10,2015-09-04 11:24:00,
2015-09-04 01:39:00,72.0,71.0,29.77,SSE,167,1.0,5.0,96,0.00,,,0.00,weatherlink.com 1.10,2015-09-04 11:39:00,
2015-09-04 01:55:00,71.6,70.0,29.77,South,172,2.0,4.0,96,0.00,,,0.00,weatherlink.com 1.10,2015-09-04 11:55:00,
2015-09-04 02:10:00,71.3,70.0,29.76,South,172,2.0,2.0,96,0.00,,,0.00,weatherlink.com 1.10,2015-09-04 12:10:00,
2015-09-04 02:27:00,70.8,70.0,29.76,South,178,3.0,3.0,96,0.00,,,0.00,weatherlink.com 1.10,2015-09-04 12:27:00,
2015-09-04 02:42:00,70.5,70.0,29.75,SSW,202,1.0,3.0,97,0.00,,,0.00,weatherlink.com 1.10,2015-09-04 12:42:00,
2015-09-04 02:58:00,70.1,69.0,29.75,SSW,211,3.0,3.0,97,0.00,,,0.00,weatherlink.com 1.10,2015-09-04 12:58:00,
2015-09-04 03:13:00,69.7,69.0,29.75,South,169,3.0,4.0,97,0.00,,,0.00,weatherlink.com 1.10,2015-09-04 13:13:00,
2015-09-04 03:30:00,69.4,69.0,29.74,SSE,153,2.0,3.0,97,0.00,,,0.00,weatherlink.com 1.10,2015-09-04 13:30:00,
2015-09-04 03:46:00,69.4,69.0,29.75,South,187,2.0,2.0,97,0.00,,,0.00,weatherlink.com 1.10,2015-09-04 13:46:00,
2015-09-04 04:01:00,69.3,69.0,29.75,SSW,198,1.0,3.0,97,0.00,,,0.00,weatherlink.com 1.10,2015-09-04 14:01:00,
2015-09-04 04:17:00,69.3,69.0,29.74,SSE,159,2.0,5.0,97,0.00,,,0.00,weatherlink.com 1.10,2015-09-04 14:17:00,
2015-09-04 04:32:00,69.5,68.0,29.74,SSW,194,1.0,4.0,96,0.00,,,0.00,weatherlink.com 1.10,2015-09-04 14:32:00,
2015-09-04 04:49:00,69.4,68.0,29.75,South,182,1.0,3.0,96,0.00,,,0.00,weatherlink.com 1.10,2015-09-04 14:49:00,
2015-09-04 05:04:00,69.4,68.0,29.75,SSE,148,2.0,5.0,95,0.00,,,0.00,weatherlink.com 1.10,2015-09-04 15:04:00,
2015-09-04 05:20:00,69.2,68.0,29.75,South,191,4.0,5.0,96,0.00,,,0.00,weatherlink.com 1.10,2015-09-04 15:20:00,
2015-09-04 05:38:00,68.8,68.0,29.75,South,170,3.0,4.0,96,0.00,,,0.00,weatherlink.com 1.10,2015-09-04 15:38:00,
2015-09-04 05:51:00,68.6,68.0,29.76,SSW,198,1.0,2.0,97,0.00,,,0.00,weatherlink.com 1.10,2015-09-04 15:51:00,
2015-09-04 06:07:00,68.3,68.0,29.75,South,178,1.0,4.0,97,0.00,,,0.00,weatherlink.com 1.10,2015-09-04 16:07:00,
2015-09-04 06:23:00,68.1,67.0,29.76,SSW,197,1.0,2.0,97,0.00,,,0.00,weatherlink.com 1.10,2015-09-04 16:23:00,
2015-09-04 06:38:00,68.2,67.0,29.77,SW,215,2.0,4.0,97,0.00,,,0.00,weatherlink.com 1.10,2015-09-04 16:38:00,
2015-09-04 06:54:00,68.5,68.0,29.78,SW,216,2.0,4.0,97,0.00,,,0.00,weatherlink.com 1.10,2015-09-04 16:54:00,
2015-09-04 07:09:00,69.2,68.0,29.78,SSW,205,1.0,4.0,97,0.00,,,0.00,weatherlink.com 1.10,2015-09-04 17:09:00,
2015-09-04 07:25:00,70.0,69.0,29.78,SSE,163,2.0,3.0,97,0.00,,,0.00,weatherlink.com 1.10,2015-09-04 17:25:00,
2015-09-04 07:41:00,71.0,70.0,29.78,SSW,196,1.0,3.0,97,0.00,,,0.00,weatherlink.com 1.10,2015-09-04 17:41:00,
2015-09-04 07:57:00,72.4,72.0,29.79,SSE,153,2.0,4.0,98,0.00,,,0.00,weatherlink.com 1.10,2015-09-04 17:57:00,
2015-09-04 08:12:00,73.4,73.0,29.79,SSE,152,2.0,6.0,97,0.00,,,0.00,weatherlink.com 1.10,2015-09-04 18:12:00,
2015-09-04 08:29:00,75.3,74.0,29.78,SE,136,3.0,7.0,96,0.00,,,0.00,weatherlink.com 1.10,2015-09-04 18:29:00,
2015-09-04 08:45:00,77.6,75.0,29.79,SE,132,1.0,5.0,92,0.00,,,0.00,weatherlink.com 1.10,2015-09-04 18:45:00,
2015-09-04 09:16:00,80.6,77.0,29.79,NE,39,2.0,6.0,87,0.00,,,0.00,weatherlink.com 1.10,2015-09-04 19:16:00,
2015-09-04 09:32:00,81.0,77.0,29.78,East,87,5.0,7.0,86,0.00,,,0.00,weatherlink.com 1.10,2015-09-04 19:32:00,
2015-09-04 09:47:00,82.2,78.0,29.79,NE,34,6.0,6.0,87,0.00,,,0.00,weatherlink.com 1.10,2015-09-04 19:47:00,
2015-09-04 10:04:00,82.7,78.0,29.78,SSW,194,2.0,10.0,84,0.00,,,0.00,weatherlink.com 1.10,2015-09-04 20:04:00,
2015-09-04 10:20:00,83.6,79.0,29.78,NE,49,3.0,10.0,85,0.00,,,0.00,weatherlink.com 1.10,2015-09-04 20:20:00,
2015-09-04 10:36:00,83.4,77.0,29.78,NNE,30,3.0,12.0,81,0.00,,,0.00,weatherlink.com 1.10,2015-09-04 20:36:00,
2015-09-04 10:51:00,82.6,77.0,29.77,SE,126,5.0,13.0,83,0.00,,,0.00,weatherlink.com 1.10,2015-09-04 20:51:00,
2015-09-04 11:07:00,82.2,77.0,29.77,ENE,71,4.0,12.0,83,0.00,,,0.00,weatherlink.com 1.10,2015-09-04 21:07:00,
2015-09-04 11:23:00,82.5,77.0,29.77,East,92,0.0,11.0,83,0.00,,,0.00,weatherlink.com 1.10,2015-09-04 21:23:00,
2015-09-04 11:39:00,82.3,77.0,29.77,SSE,154,2.0,8.0,85,0.00,,,0.00,weatherlink.com 1.10,2015-09-04 21:39:00,
2015-09-04 11:55:00,83.0,77.0,29.76,ENE,58,3.0,9.0,81,0.00,,,0.00,weatherlink.com 1.10,2015-09-04 21:55:00,
2015-09-04 12:11:00,82.4,76.0,29.75,East,94,1.0,8.0,82,0.00,,,0.00,weatherlink.com 1.10,2015-09-04 22:11:00,
2015-09-04 12:26:00,82.9,77.0,29.74,SE,140,5.0,8.0,82,0.00,,,0.00,weatherlink.com 1.10,2015-09-04 22:26:00,
2015-09-04 12:42:00,81.9,77.0,29.74,NE,40,5.0,8.0,84,0.00,,,0.00,weatherlink.com 1.10,2015-09-04 22:42:00,
2015-09-04 12:59:00,82.0,76.0,29.73,NE,36,2.0,10.0,82,0.00,,,0.00,weatherlink.com 1.10,2015-09-04 22:59:00,
2015-09-04 13:14:00,81.9,77.0,29.73,East,79,6.0,8.0,84,0.00,,,0.00,weatherlink.com 1.10,2015-09-04 23:14:00,
2015-09-04 13:46:00,82.2,77.0,29.72,NE,56,0.0,5.0,84,0.00,,,0.00,weatherlink.com 1.10,2015-09-04 23:46:00,